Dati Storici

Data ora Umidita' aria (%) Temperatura aria (°C) Rad globale (W/m²) Gonioanemometro (°) Tacoanemometro (m/s) Pioggia (mm)
23-06-2020 06:10 56.3 % 23.113 63.478 0.932 0 0
23-06-2020 06:00 54.3 % 23.063 341.32 -0.022 0 0
23-06-2020 05:50 54.9 % 23.108 11.701 -0.023 0 0
23-06-2020 05:40 55.5 % 22.742 283.693 0.121 0 0
23-06-2020 05:30 56.9 % 22.514 309.758 -0.015 0 0
23-06-2020 05:20 58.9 % 22.02 315.309 0.244 0 0
23-06-2020 05:10 59.6 % 21.747 353.458 -0.015 0 0
23-06-2020 05:00 60.2 % 21.319 303.271 -0.015 0 0
23-06-2020 04:50 60.8 % 21.335 36.609 -0.017 0 0
23-06-2020 04:40 60.5 % 21.49 236.804 -0.016 0 0
23-06-2020 04:30 61.1 % 21.571 297.036 -0.014 0 0
23-06-2020 04:20 61.1 % 21.616 17.631 -0.014 0 0
23-06-2020 04:10 61.9 % 21.582 336.999 -0.013 0 0
23-06-2020 04:00 61.8 % 21.749 1.783 0.726 0 0
23-06-2020 03:50 60.8 % 21.821 54.257 0.357 0 0
23-06-2020 03:40 60.6 % 22.09 44.529 0.206 0 0
23-06-2020 03:30 60.5 % 22.278 17.213 0.409 0 0
23-06-2020 03:20 61.7 % 22.174 276.124 -0.01 0 0
23-06-2020 03:10 63.1 % 22.16 272.908 -0.009 0 0
23-06-2020 03:00 63.1 % 22.344 47.477 -0.011 0 0

I dati sono presentati in modo automatico a scopo informativo. In seguito a verifica i dati possono subire modifiche o essere invalidati e non riportati negli archivi definitivi.